createdAt,value
2019-05-07T00:01:42.309Z,68.54
2019-05-07T00:04:12.889Z,68.65
2019-05-07T00:06:43.441Z,68.77
2019-05-07T00:09:13.905Z,68.87
2019-05-07T00:11:42.965Z,68.94
2019-05-07T00:14:12.625Z,69.05
2019-05-07T00:16:42.433Z,69.28
2019-05-07T00:19:12.872Z,69.34
2019-05-07T00:21:42.428Z,69.48
2019-05-07T00:24:13.155Z,69.49
2019-05-07T00:26:43.168Z,69.56
2019-05-07T00:29:12.968Z,69.76
2019-05-07T00:31:42.265Z,69.96
2019-05-07T00:34:12.617Z,70.08
2019-05-07T00:36:49.776Z,70.17
2019-05-07T00:39:30.001Z,70.37
2019-05-07T00:42:07.474Z,70.52
2019-05-07T00:44:56.007Z,70.62
2019-05-07T00:47:25.076Z,70.73
2019-05-07T00:49:55.161Z,70.78
2019-05-07T00:52:24.221Z,70.83
2019-05-07T00:54:53.357Z,70.95
2019-05-07T00:57:22.954Z,71.02
2019-05-07T00:59:52.562Z,71.04
2019-05-07T01:02:23.138Z,71.16
2019-05-07T01:04:53.179Z,71.12
2019-05-07T01:07:23.025Z,71.08
2019-05-07T01:09:52.552Z,71.02
2019-05-07T01:12:22.325Z,71.10
2019-05-07T01:14:52.802Z,71.00
2019-05-07T01:17:22.836Z,71.02
2019-05-07T01:19:53.232Z,71.02
2019-05-07T01:22:22.477Z,71.06
2019-05-07T01:24:52.570Z,71.08
2019-05-07T01:27:22.590Z,71.09
2019-05-07T01:29:52.860Z,71.05
2019-05-07T01:32:33.009Z,71.06
2019-05-07T01:35:07.463Z,71.09
2019-05-07T01:37:36.579Z,71.16
2019-05-07T01:40:05.648Z,71.32
2019-05-07T01:42:36.618Z,71.45
2019-05-07T01:45:06.686Z,71.42
2019-05-07T01:47:35.768Z,71.17
2019-05-07T01:50:04.944Z,71.25
2019-05-07T01:52:34.030Z,71.44
2019-05-07T01:55:03.410Z,71.48
2019-05-07T01:57:32.841Z,71.56
2019-05-07T02:00:02.561Z,71.63
2019-05-07T02:02:42.562Z,71.67
2019-05-07T02:05:33.769Z,71.72
2019-05-07T02:08:06.698Z,71.65
2019-05-07T02:10:49.038Z,71.59
2019-05-07T02:13:18.095Z,71.60
2019-05-07T02:16:00.215Z,71.66
2019-05-07T02:18:17.972Z,71.77
2019-05-07T02:20:47.029Z,71.83
2019-05-07T02:23:16.111Z,71.93
2019-05-07T02:25:45.190Z,72.02
2019-05-07T02:28:14.272Z,72.09
2019-05-07T02:30:44.349Z,72.12
2019-05-07T02:33:14.096Z,72.10
2019-05-07T02:35:43.938Z,72.20
2019-05-07T02:38:23.026Z,72.31
2019-05-07T02:41:02.718Z,72.16
2019-05-07T02:43:33.451Z,72.22
2019-05-07T02:46:30.009Z,72.27
2019-05-07T02:49:10.248Z,72.32
2019-05-07T02:51:45.284Z,72.22
2019-05-07T02:54:24.245Z,72.25
2019-05-07T02:56:53.478Z,72.32
2019-05-07T02:59:23.507Z,72.44
2019-05-07T03:01:53.666Z,72.51
2019-05-07T03:04:25.099Z,72.62
2019-05-07T03:06:54.479Z,72.70
2019-05-07T03:09:23.708Z,72.77
2019-05-07T03:11:53.250Z,72.88
2019-05-07T03:14:23.311Z,72.87
2019-05-07T03:16:53.537Z,73.00
2019-05-07T03:19:24.266Z,73.04
2019-05-07T03:21:54.350Z,73.14
2019-05-07T03:24:46.925Z,73.04
2019-05-07T03:27:16.040Z,73.16
2019-05-07T03:29:53.516Z,73.22
2019-05-07T03:32:36.700Z,73.31
2019-05-07T03:35:27.297Z,73.41
2019-05-07T03:37:55.190Z,73.33
2019-05-07T03:40:24.254Z,73.38
2019-05-07T03:42:53.677Z,73.49
2019-05-07T03:45:38.768Z,73.54
2019-05-07T03:48:18.715Z,73.59
2019-05-07T03:50:47.781Z,73.51
2019-05-07T03:53:16.864Z,73.57
2019-05-07T03:55:45.942Z,73.71
2019-05-07T03:58:15.116Z,73.83
2019-05-07T04:00:44.822Z,73.82
2019-05-07T04:03:18.768Z,73.78
2019-05-07T04:05:44.720Z,73.81
2019-05-07T04:08:13.813Z,73.79
2019-05-07T04:10:44.381Z,73.67
2019-05-07T04:13:13.891Z,73.68
2019-05-07T04:15:44.095Z,73.65
2019-05-07T04:18:13.623Z,73.62
2019-05-07T04:20:43.772Z,73.60
2019-05-07T04:23:13.935Z,73.58
2019-05-07T04:25:53.038Z,73.58
2019-05-07T04:28:27.630Z,73.65
2019-05-07T04:30:57.575Z,73.61
2019-05-07T04:33:33.085Z,73.70
2019-05-07T04:36:07.576Z,73.73
2019-05-07T04:38:36.583Z,73.71
2019-05-07T04:41:05.665Z,73.73
2019-05-07T04:43:34.745Z,73.72
2019-05-07T04:46:03.902Z,73.81
2019-05-07T04:48:34.155Z,73.85
2019-05-07T04:51:05.077Z,73.91
2019-05-07T04:53:34.149Z,74.01
2019-05-07T04:56:03.558Z,74.10
2019-05-07T04:58:33.807Z,74.16
2019-05-07T05:01:04.623Z,74.07
2019-05-07T05:03:35.569Z,73.91
2019-05-07T05:06:04.467Z,73.89
2019-05-07T05:08:33.528Z,73.76
2019-05-07T05:11:03.575Z,73.72
2019-05-07T05:13:33.312Z,73.71
2019-05-07T05:16:22.459Z,73.68
2019-05-07T05:18:51.806Z,73.78
2019-05-07T05:21:52.840Z,73.80
2019-05-07T05:24:32.772Z,73.88
2019-05-07T05:27:02.587Z,73.87
2019-05-07T05:29:32.833Z,73.91
2019-05-07T05:32:02.383Z,73.95
2019-05-07T05:34:32.920Z,74.27
2019-05-07T05:37:02.543Z,74.38
2019-05-07T05:39:32.091Z,74.47
2019-05-07T05:42:12.228Z,74.60
2019-05-07T05:44:41.782Z,74.62
2019-05-07T05:47:11.952Z,74.67
2019-05-07T05:49:42.876Z,74.85
2019-05-07T05:52:19.259Z,74.87
2019-05-07T05:55:12.029Z,74.87
2019-05-07T05:58:02.689Z,74.75
2019-05-07T06:01:03.277Z,74.58
2019-05-07T06:03:44.318Z,74.33
2019-05-07T06:06:35.747Z,74.00
2019-05-07T06:09:44.093Z,73.81
2019-05-07T06:12:22.594Z,73.32
2019-05-07T06:15:16.567Z,72.82
2019-05-07T06:18:17.912Z,72.79
2019-05-07T06:21:00.408Z,72.82
2019-05-07T06:23:37.644Z,72.46
2019-05-07T06:26:06.738Z,71.85
2019-05-07T06:28:35.807Z,71.75
2019-05-07T06:31:04.886Z,71.41
2019-05-07T06:33:33.937Z,71.04
2019-05-07T06:36:03.047Z,71.08
2019-05-07T06:38:36.372Z,71.06
2019-05-07T06:41:25.357Z,70.89
2019-05-07T06:44:03.903Z,70.47
2019-05-07T06:46:32.984Z,70.39
2019-05-07T06:49:02.258Z,70.24
2019-05-07T06:51:32.875Z,70.14
2019-05-07T06:54:02.812Z,69.54
2019-05-07T06:56:32.611Z,69.51
2019-05-07T06:59:13.044Z,68.67
2019-05-07T07:01:59.371Z,68.35
2019-05-07T07:04:39.662Z,68.59
2019-05-07T07:07:27.320Z,68.29
2019-05-07T07:09:59.072Z,67.57
2019-05-07T07:12:29.299Z,66.78
2019-05-07T07:14:58.353Z,65.48
2019-05-07T07:17:27.427Z,65.32
2019-05-07T07:19:56.481Z,65.20
2019-05-07T07:22:25.563Z,64.74
2019-05-07T07:24:54.650Z,64.43
2019-05-07T07:27:23.715Z,63.61
2019-05-07T07:30:12.772Z,62.80
2019-05-07T07:32:43.173Z,62.63
2019-05-07T07:35:13.931Z,62.44
2019-05-07T07:37:43.150Z,62.10
2019-05-07T07:40:48.607Z,61.91
2019-05-07T07:43:17.687Z,61.29
2019-05-07T07:45:46.737Z,61.27
2019-05-07T07:48:15.813Z,61.10
2019-05-07T07:50:44.871Z,60.55
2019-05-07T07:53:13.956Z,60.34
2019-05-07T07:56:02.593Z,58.88
2019-05-07T07:58:52.429Z,57.83
2019-05-07T08:01:28.779Z,57.98
2019-05-07T08:03:57.840Z,57.75
2019-05-07T08:06:29.331Z,56.94
2019-05-07T08:08:58.429Z,57.23
2019-05-07T08:11:27.503Z,57.00
2019-05-07T08:13:56.569Z,57.03
2019-05-07T08:16:25.623Z,56.01
2019-05-07T08:18:54.806Z,55.64
2019-05-07T08:21:23.871Z,55.23
2019-05-07T08:23:53.020Z,55.33
2019-05-07T08:26:22.072Z,56.03
2019-05-07T08:28:52.376Z,56.42
2019-05-07T08:31:32.031Z,56.38
2019-05-07T08:34:14.244Z,55.97
2019-05-07T08:36:43.390Z,54.35
2019-05-07T08:39:13.053Z,53.52
2019-05-07T08:41:42.417Z,52.66
2019-05-07T08:44:16.090Z,52.71
2019-05-07T08:47:16.580Z,53.20
2019-05-07T08:49:45.642Z,52.87
2019-05-07T08:52:14.702Z,53.81
2019-05-07T08:54:43.767Z,53.05
2019-05-07T08:57:12.928Z,51.80
2019-05-07T08:59:46.738Z,51.54
2019-05-07T09:02:12.864Z,50.56
2019-05-07T09:04:42.002Z,50.07
2019-05-07T09:07:13.057Z,51.06
2019-05-07T09:09:42.686Z,51.36
2019-05-07T09:12:12.515Z,50.07
2019-05-07T09:14:42.637Z,49.37
2019-05-07T09:17:12.728Z,49.01
2019-05-07T09:19:50.692Z,51.05
2019-05-07T09:22:12.979Z,51.10
2019-05-07T09:24:42.597Z,50.37
2019-05-07T09:27:22.156Z,49.70
2019-05-07T09:30:28.404Z,49.55
2019-05-07T09:36:24.661Z,48.09
2019-05-07T09:38:59.359Z,47.95
2019-05-07T09:41:27.821Z,47.44
2019-05-07T09:43:59.808Z,47.54
2019-05-07T09:46:28.870Z,47.46
2019-05-07T09:48:57.940Z,47.39
2019-05-07T09:51:27.002Z,47.16
2019-05-07T09:53:56.077Z,47.02
2019-05-07T09:56:25.127Z,47.35
2019-05-07T09:58:54.218Z,46.78
2019-05-07T10:01:23.647Z,47.01
2019-05-07T10:03:52.977Z,47.30
2019-05-07T10:06:22.925Z,46.68
2019-05-07T10:08:52.429Z,46.45
2019-05-07T10:11:34.346Z,46.11
2019-05-07T10:14:07.424Z,46.24
2019-05-07T10:16:45.968Z,46.31
2019-05-07T10:19:15.045Z,46.12
2019-05-07T10:21:44.212Z,46.30
2019-05-07T10:24:13.302Z,43.14
2019-05-07T10:26:42.878Z,43.87
2019-05-07T10:29:12.602Z,44.38
2019-05-07T10:31:42.417Z,45.65
2019-05-07T10:34:12.312Z,45.18
2019-05-07T10:36:42.175Z,45.20
2019-05-07T10:39:12.904Z,45.51
2019-05-07T10:41:42.543Z,46.46
2019-05-07T10:44:12.754Z,46.05
2019-05-07T10:47:01.994Z,45.85
2019-05-07T10:49:37.860Z,45.14
2019-05-07T10:52:06.928Z,44.60
2019-05-07T10:54:36.000Z,44.73
2019-05-07T10:57:05.064Z,44.12
2019-05-07T10:59:34.163Z,41.33
2019-05-07T11:02:21.938Z,42.27
2019-05-07T11:04:53.060Z,41.06
2019-05-07T11:07:22.280Z,41.24
2019-05-07T11:09:52.515Z,39.57
2019-05-07T11:12:24.936Z,40.53
2019-05-07T11:14:54.007Z,39.89
2019-05-07T11:17:33.497Z,38.73
2019-05-07T11:20:02.587Z,38.85
2019-05-07T11:22:32.781Z,39.70
2019-05-07T11:25:03.084Z,38.47
2019-05-07T11:27:33.057Z,38.18
2019-05-07T11:30:02.803Z,40.10
2019-05-07T11:32:32.210Z,39.50
2019-05-07T11:35:03.157Z,37.37
2019-05-07T11:37:32.146Z,35.95
2019-05-07T11:40:03.210Z,34.97
2019-05-07T11:42:54.113Z,34.32
2019-05-07T11:45:28.985Z,34.92
2019-05-07T11:47:58.041Z,34.26
2019-05-07T11:50:42.308Z,36.64
2019-05-07T11:53:12.292Z,37.83
2019-05-07T11:55:42.045Z,36.67
2019-05-07T11:58:12.876Z,35.99
2019-05-07T12:00:51.138Z,34.51
2019-05-07T12:03:22.133Z,35.13
2019-05-07T12:05:52.650Z,33.90
2019-05-07T12:08:23.707Z,34.02
2019-05-07T12:10:52.695Z,34.06
2019-05-07T12:13:21.970Z,33.16
2019-05-07T12:15:52.082Z,32.00
2019-05-07T12:18:22.762Z,29.66
2019-05-07T12:20:54.108Z,30.93
2019-05-07T12:23:22.884Z,30.46
2019-05-07T12:25:52.848Z,30.41
2019-05-07T12:28:22.641Z,30.18
2019-05-07T12:31:08.627Z,31.46
2019-05-07T12:33:47.252Z,30.46
2019-05-07T12:36:16.313Z,30.54
2019-05-07T12:38:45.362Z,30.64
2019-05-07T12:41:29.886Z,30.68
2019-05-07T12:43:59.925Z,29.59
2019-05-07T12:46:29.404Z,29.44
2019-05-07T12:48:58.463Z,28.55
2019-05-07T12:51:36.378Z,28.92
2019-05-07T12:54:03.470Z,30.42
2019-05-07T12:56:32.564Z,29.62
2019-05-07T12:59:02.211Z,28.68
2019-05-07T13:01:52.082Z,30.10
2019-05-07T13:04:23.864Z,29.06
2019-05-07T13:06:59.335Z,28.25
2019-05-07T13:09:28.382Z,28.89
2019-05-07T13:11:57.466Z,28.64
2019-05-07T13:14:26.515Z,27.98
2019-05-07T13:16:55.593Z,27.65
2019-05-07T13:19:24.645Z,26.86
2019-05-07T13:21:53.699Z,26.15
2019-05-07T13:24:22.956Z,25.97
2019-05-07T13:26:52.043Z,26.87
2019-05-07T13:29:22.217Z,27.07
2019-05-07T13:31:54.320Z,27.92
2019-05-07T13:34:23.692Z,27.80
2019-05-07T13:36:57.385Z,27.62
2019-05-07T13:39:43.139Z,28.28
2019-05-07T13:42:31.944Z,28.20
2019-05-07T13:45:23.264Z,28.54
2019-05-07T13:48:02.827Z,28.89
2019-05-07T13:50:32.672Z,29.21
2019-05-07T13:53:01.834Z,28.86
2019-05-07T13:55:32.366Z,29.10
2019-05-07T13:58:01.534Z,28.46
2019-05-07T14:00:35.629Z,28.74
2019-05-07T14:03:04.813Z,29.00
2019-05-07T14:05:33.860Z,29.27
2019-05-07T14:08:04.664Z,28.34
2019-05-07T14:10:33.930Z,28.06
2019-05-07T14:13:12.660Z,28.66
2019-05-07T14:15:35.005Z,29.34
2019-05-07T14:18:04.403Z,29.28
2019-05-07T14:20:33.455Z,28.13
2019-05-07T14:23:02.505Z,28.15
2019-05-07T14:25:32.535Z,27.94
2019-05-07T14:28:02.294Z,28.58
2019-05-07T14:30:32.787Z,27.91
2019-05-07T14:33:15.219Z,28.88
2019-05-07T14:35:52.051Z,29.32
2019-05-07T14:38:25.347Z,29.53
2019-05-07T14:40:54.372Z,30.10
2019-05-07T14:43:48.307Z,29.97
2019-05-07T14:46:17.358Z,29.76
2019-05-07T14:48:46.514Z,29.91
2019-05-07T14:51:15.511Z,29.97
2019-05-07T14:53:44.558Z,29.98
2019-05-07T14:56:14.259Z,30.23
2019-05-07T14:58:44.051Z,29.85
2019-05-07T15:01:13.149Z,30.05
2019-05-07T15:03:42.364Z,30.39
2019-05-07T15:06:12.590Z,30.63
2019-05-07T15:08:42.897Z,30.44
2019-05-07T15:11:12.179Z,30.45
2019-05-07T15:13:42.730Z,30.98
2019-05-07T15:16:12.601Z,30.58
2019-05-07T15:18:52.941Z,30.82
2019-05-07T15:21:22.589Z,31.04
2019-05-07T15:23:53.335Z,31.41
2019-05-07T15:26:22.566Z,31.43
2019-05-07T15:29:06.061Z,31.53
2019-05-07T15:31:52.915Z,31.87
2019-05-07T15:34:22.235Z,32.18
2019-05-07T15:36:52.713Z,32.13
2019-05-07T15:39:22.321Z,32.05
2019-05-07T15:41:51.858Z,31.89
2019-05-07T15:44:20.998Z,31.74
2019-05-07T15:46:51.916Z,31.90
2019-05-07T15:49:21.654Z,31.61
2019-05-07T15:51:53.152Z,31.49
2019-05-07T15:54:22.328Z,31.65
2019-05-07T15:56:53.290Z,32.04
2019-05-07T15:59:22.784Z,31.90
2019-05-07T16:01:53.993Z,32.68
2019-05-07T16:04:25.793Z,33.05
2019-05-07T16:06:55.208Z,33.15
2019-05-07T16:09:24.272Z,33.26
2019-05-07T16:11:53.355Z,32.60
2019-05-07T16:14:26.798Z,33.23
2019-05-07T16:17:02.834Z,33.39
2019-05-07T16:19:32.220Z,33.56
2019-05-07T16:22:06.251Z,33.58
2019-05-07T16:24:35.324Z,33.49
2019-05-07T16:27:05.219Z,33.78
2019-05-07T16:29:35.911Z,33.30
2019-05-07T16:32:05.175Z,33.28
2019-05-07T16:34:34.221Z,33.72
2019-05-07T16:37:06.848Z,34.42
2019-05-07T16:39:34.090Z,34.68
2019-05-07T16:42:03.166Z,34.72
2019-05-07T16:44:33.123Z,35.36
2019-05-07T16:47:02.840Z,35.04
2019-05-07T16:49:32.037Z,35.58
2019-05-07T16:52:01.822Z,36.02
2019-05-07T16:54:31.072Z,36.60
2019-05-07T16:57:31.818Z,36.53
2019-05-07T17:00:12.746Z,36.93
2019-05-07T17:02:45.023Z,37.43
2019-05-07T17:05:15.044Z,37.93
2019-05-07T17:08:02.578Z,37.96
2019-05-07T17:10:31.967Z,38.04
2019-05-07T17:13:02.872Z,38.21
2019-05-07T17:15:33.689Z,38.18
2019-05-07T17:18:03.024Z,38.50
2019-05-07T17:20:32.705Z,38.93
2019-05-07T17:23:02.959Z,38.85
2019-05-07T17:25:38.382Z,38.72
2019-05-07T17:28:07.851Z,38.76
2019-05-07T17:30:37.717Z,38.56
2019-05-07T17:33:07.280Z,38.52
2019-05-07T17:35:36.333Z,38.50
2019-05-07T17:38:09.103Z,38.67
2019-05-07T17:40:36.220Z,39.18
2019-05-07T17:43:05.298Z,39.25
2019-05-07T17:45:34.344Z,39.44
2019-05-07T17:48:03.426Z,39.46
2019-05-07T17:50:38.646Z,39.44
2019-05-07T17:53:07.730Z,39.60
2019-05-07T17:55:36.778Z,39.90
2019-05-07T17:58:05.843Z,39.91
2019-05-07T18:00:34.887Z,39.99
2019-05-07T18:03:32.280Z,40.42
2019-05-07T18:06:02.376Z,40.60
2019-05-07T18:08:32.677Z,40.73
2019-05-07T18:11:02.559Z,40.97
2019-05-07T18:13:32.526Z,40.84
2019-05-07T18:16:08.409Z,41.05
2019-05-07T18:18:37.488Z,41.11
2019-05-07T18:21:06.542Z,41.52
2019-05-07T18:23:35.689Z,41.88
2019-05-07T18:26:04.924Z,42.10
2019-05-07T18:28:34.027Z,42.29
2019-05-07T18:31:03.070Z,42.19
2019-05-07T18:33:38.382Z,42.58
2019-05-07T18:36:07.437Z,42.86
2019-05-07T18:38:36.535Z,43.30
2019-05-07T18:41:05.679Z,43.68
2019-05-07T18:43:34.817Z,44.03
2019-05-07T18:46:03.866Z,44.27
2019-05-07T18:48:32.940Z,44.68
2019-05-07T18:51:02.720Z,44.79
2019-05-07T18:53:31.925Z,45.21
2019-05-07T18:56:01.744Z,45.48
2019-05-07T18:58:31.935Z,45.60
2019-05-07T19:01:04.268Z,45.85
2019-05-07T19:03:33.351Z,46.13
2019-05-07T19:06:02.891Z,46.62
2019-05-07T19:08:32.650Z,46.71
2019-05-07T19:11:05.687Z,47.18
2019-05-07T19:13:33.562Z,47.55
2019-05-07T19:16:03.000Z,47.95
2019-05-07T19:18:32.358Z,48.07
2019-05-07T19:21:01.328Z,48.37
2019-05-07T19:23:30.334Z,48.36
2019-05-07T19:25:59.395Z,48.47
2019-05-07T19:28:28.467Z,48.43
2019-05-07T19:30:57.519Z,48.49
2019-05-07T19:33:27.331Z,48.62
2019-05-07T19:35:56.518Z,48.99
2019-05-07T19:38:25.512Z,49.09
2019-05-07T19:40:54.600Z,49.26
2019-05-07T19:43:23.649Z,49.51
2019-05-07T19:45:52.736Z,49.86
2019-05-07T19:48:23.155Z,50.16
2019-05-07T19:50:52.806Z,50.26
2019-05-07T19:53:23.466Z,50.28
2019-05-07T19:56:08.333Z,50.33
2019-05-07T19:58:37.410Z,50.43
2019-05-07T20:01:07.851Z,50.64
2019-05-07T20:03:36.899Z,50.59
2019-05-07T20:06:05.973Z,50.52
2019-05-07T20:08:34.954Z,50.55
2019-05-07T20:11:12.049Z,50.70
2019-05-07T20:13:43.625Z,51.08
2019-05-07T20:16:15.607Z,51.53
2019-05-07T20:18:44.650Z,51.66
2019-05-07T20:21:13.727Z,51.54
2019-05-07T20:23:43.370Z,51.73
2019-05-07T20:26:12.796Z,52.11
2019-05-07T20:28:41.975Z,52.37
2019-05-07T20:31:12.256Z,52.60
2019-05-07T20:33:42.304Z,52.49
2019-05-07T20:36:11.567Z,52.51
2019-05-07T20:38:42.547Z,52.47
2019-05-07T20:41:12.904Z,52.62
2019-05-07T20:43:42.863Z,52.91
2019-05-07T20:46:12.182Z,53.25
2019-05-07T20:48:42.293Z,53.44
2019-05-07T20:51:12.519Z,53.79
2019-05-07T20:53:56.708Z,54.04
2019-05-07T20:56:28.719Z,54.34
2019-05-07T20:58:57.767Z,54.47
2019-05-07T21:01:26.847Z,54.49
2019-05-07T21:03:55.816Z,54.52
2019-05-07T21:06:24.889Z,54.65
2019-05-07T21:08:53.944Z,54.72
2019-05-07T21:11:23.048Z,54.97
2019-05-07T21:13:52.479Z,55.10
2019-05-07T21:16:22.179Z,55.30
2019-05-07T21:18:52.868Z,55.53
2019-05-07T21:21:22.034Z,55.63
2019-05-07T21:23:52.749Z,55.78
2019-05-07T21:26:22.574Z,55.94
2019-05-07T21:28:52.828Z,56.03
2019-05-07T21:31:22.772Z,56.22
2019-05-07T21:33:52.482Z,56.39
2019-05-07T21:36:22.837Z,56.65
2019-05-07T21:38:52.103Z,56.80
2019-05-07T21:41:22.622Z,57.00
2019-05-07T21:43:52.848Z,56.89
2019-05-07T21:46:22.314Z,56.88
2019-05-07T21:48:53.628Z,57.18
2019-05-07T21:51:22.960Z,57.23
2019-05-07T21:54:04.708Z,57.53
2019-05-07T21:56:54.580Z,57.67
2019-05-07T21:59:25.177Z,57.89
2019-05-07T22:02:02.217Z,58.16
2019-05-07T22:04:31.025Z,58.31
2019-05-07T22:07:00.013Z,58.46
2019-05-07T22:09:29.064Z,58.52
2019-05-07T22:11:58.135Z,58.57
2019-05-07T22:14:27.195Z,58.75
2019-05-07T22:16:56.266Z,58.90
2019-05-07T22:19:25.311Z,59.05
2019-05-07T22:21:54.378Z,59.24
2019-05-07T22:24:23.426Z,59.42
2019-05-07T22:26:52.494Z,59.42
2019-05-07T22:29:22.737Z,59.60
2019-05-07T22:32:15.849Z,59.78
2019-05-07T22:35:02.821Z,59.70
2019-05-07T22:37:32.518Z,59.97
2019-05-07T22:40:02.767Z,60.06
2019-05-07T22:42:32.693Z,60.11
2019-05-07T22:45:02.842Z,60.12
2019-05-07T22:47:32.616Z,60.30
2019-05-07T22:50:02.856Z,60.32
2019-05-07T22:52:32.644Z,60.28
2019-05-07T22:55:01.863Z,60.33
2019-05-07T22:57:37.111Z,60.30
2019-05-07T23:00:08.440Z,60.31
2019-05-07T23:02:37.519Z,60.21
2019-05-07T23:05:06.927Z,60.39
2019-05-07T23:07:36.008Z,60.50
2019-05-07T23:10:05.577Z,60.40
2019-05-07T23:12:34.642Z,60.42
2019-05-07T23:15:03.798Z,60.44
2019-05-07T23:17:32.900Z,60.42
2019-05-07T23:20:01.985Z,60.31
2019-05-07T23:22:32.431Z,60.29
2019-05-07T23:25:01.603Z,60.41
2019-05-07T23:27:32.504Z,60.60
2019-05-07T23:30:02.615Z,60.68
2019-05-07T23:32:32.929Z,60.77
2019-05-07T23:35:02.342Z,60.85
2019-05-07T23:37:33.110Z,61.02
2019-05-07T23:40:05.777Z,61.24
2019-05-07T23:42:36.422Z,61.27
2019-05-07T23:45:06.178Z,61.47
2019-05-07T23:47:35.154Z,61.61
2019-05-07T23:50:04.500Z,61.54
2019-05-07T23:52:33.463Z,61.55
2019-05-07T23:55:02.929Z,61.67
2019-05-07T23:57:32.629Z,61.87
